M I D A S
Marine Information and Data Acquisition System
Tripno 1653 of the Zeeleeuw from 2009-03-04 08:25:30 to 2009-03-04 17:20:54
Back to CruiseResearch ActivitiesStationsMapUnderway DataData graphs

EquipmentUnitsComment
TimeDGPSUTC
LatitudeDGPSDM.mWGS84
LongitudeDGPSDM.mWGS84
HeadingGyrodeg 
SOGDGPSknotsSpeed over ground
COGDGPSdegCourse over ground
DepthEcho soundermeters200 kHz
Missing or incorrect values are displayed as -999
Navigation data collected by the RV Zeeleeuw from 2009-03-04 08:07:23 to 2009-03-04 17:24:59
                                                                                    Next 1000 lines
Time Latitude Longitude Heading SOG COG Depth
2009-03-04 08:07:33 51°13.663 2°55.959 125.7 0.1 16 -999
2009-03-04 08:07:38 51°13.663 2°55.959 125.7 0.1 212 -999
2009-03-04 08:07:43 51°13.664 2°55.959 125.7 0.1 33 6.1
2009-03-04 08:07:48 51°13.664 2°55.959 125.7 -999 229 6.1
2009-03-04 08:07:53 51°13.664 2°55.959 125.5 -999 49 -999
2009-03-04 08:07:58 51°13.664 2°55.959 125.5 -999 186 -999
2009-03-04 08:08:03 51°13.664 2°55.959 125.5 -999 18 6.1
2009-03-04 08:08:08 51°13.663 2°55.959 125.7 -999 41 6
2009-03-04 08:08:14 51°13.663 2°55.959 125.7 -999 46 -999
2009-03-04 08:08:18 51°13.663 2°55.959 125.8 -999 56 6
2009-03-04 08:08:23 51°13.663 2°55.959 125.8 -999 123 6
2009-03-04 08:08:28 51°13.663 2°55.959 125.8 -999 186 6
2009-03-04 08:08:33 51°13.663 2°55.959 125.8 -999 293 6
2009-03-04 08:08:38 51°13.664 2°55.96 125.8 -999 151 6
2009-03-04 08:08:42 51°13.664 2°55.96 125.8 0.1 206 6
2009-03-04 08:08:47 51°13.663 2°55.959 125.8 -999 256 6
2009-03-04 08:08:52 51°13.663 2°55.959 125.8 -999 190 -999
2009-03-04 08:08:58 51°13.664 2°55.959 125.8 -999 338 -999
2009-03-04 08:09:03 51°13.664 2°55.959 125.9 -999 264 -999
2009-03-04 08:09:08 51°13.664 2°55.959 125.9 -999 17 -999
2009-03-04 08:09:14 51°13.664 2°55.959 125.8 -999 323 -999
2009-03-04 08:09:18 51°13.664 2°55.959 125.6 -999 14 -999
2009-03-04 08:09:23 51°13.664 2°55.959 125.4 -999 175 -999
2009-03-04 08:09:28 51°13.664 2°55.959 125.3 -999 178 -999
2009-03-04 08:09:33 51°13.664 2°55.959 125.3 -999 236 -999
2009-03-04 08:09:38 51°13.664 2°55.958 125.5 -999 250 -999
2009-03-04 08:09:43 51°13.664 2°55.958 125.5 -999 345 -999
2009-03-04 08:09:49 51°13.664 2°55.958 125.5 0.1 353 -999
2009-03-04 08:09:53 51°13.663 2°55.958 125.5 -999 277 -999
2009-03-04 08:09:58 51°13.664 2°55.958 125.5 -999 129 -999
2009-03-04 08:10:03 51°13.664 2°55.959 125.5 -999 129 -999
2009-03-04 08:10:08 51°13.664 2°55.959 125.5 -999 202 -999
2009-03-04 08:10:13 51°13.664 2°55.959 125.5 -999 223 -999
2009-03-04 08:10:18 51°13.664 2°55.959 125.5 -999 12 -999
2009-03-04 08:10:23 51°13.664 2°55.959 125.6 -999 148 -999
2009-03-04 08:10:29 51°13.664 2°55.959 125.6 0.1 178 -999
2009-03-04 08:10:33 51°13.664 2°55.959 125.7 -999 174 6
2009-03-04 08:10:38 51°13.664 2°55.959 125.7 -999 43 -999
2009-03-04 08:10:42 51°13.664 2°55.959 125.7 -999 10 6
2009-03-04 08:10:48 51°13.664 2°55.959 125.7 -999 283 -999
2009-03-04 08:10:53 51°13.664 2°55.959 125.7 -999 17 -999
2009-03-04 08:10:58 51°13.664 2°55.959 125.7 -999 84 -999
2009-03-04 08:11:03 51°13.664 2°55.959 125.7 -999 185 -999
2009-03-04 08:11:08 51°13.664 2°55.959 125.7 0.1 181 6
2009-03-04 08:11:14 51°13.664 2°55.959 125.7 -999 146 -999
2009-03-04 08:11:18 51°13.664 2°55.959 125.9 -999 293 -999
2009-03-04 08:11:23 51°13.664 2°55.959 126 -999 275 -999
2009-03-04 08:11:28 51°13.664 2°55.959 126 -999 312 -999
2009-03-04 08:11:33 51°13.664 2°55.959 126 -999 341 -999
2009-03-04 08:11:38 51°13.664 2°55.959 126 -999 235 6
2009-03-04 08:11:43 51°13.664 2°55.959 125.9 -999 9 -999
2009-03-04 08:11:48 51°13.664 2°55.959 125.9 -999 37 6
2009-03-04 08:11:53 51°13.663 2°55.958 125.9 -999 200 -999
2009-03-04 08:11:58 51°13.664 2°55.959 125.9 -999 237 6
2009-03-04 08:12:03 51°13.664 2°55.959 125.8 -999 62 6
2009-03-04 08:12:08 51°13.664 2°55.959 125.8 -999 109 6
2009-03-04 08:12:13 51°13.664 2°55.959 125.8 -999 15 6
2009-03-04 08:12:18 51°13.664 2°55.959 125.8 -999 32 6
2009-03-04 08:12:22 51°13.664 2°55.959 125.8 -999 18 6
2009-03-04 08:12:27 51°13.663 2°55.959 125.8 0.1 21 6
2009-03-04 08:12:32 51°13.663 2°55.959 125.8 -999 74 6
2009-03-04 08:12:37 51°13.663 2°55.959 125.9 -999 39 6
2009-03-04 08:12:42 51°13.663 2°55.959 125.9 -999 264 6
2009-03-04 08:12:47 51°13.663 2°55.959 125.9 -999 234 6
2009-03-04 08:12:52 51°13.663 2°55.959 125.9 -999 262 -999
2009-03-04 08:12:58 51°13.663 2°55.959 125.9 -999 264 -999
2009-03-04 08:13:03 51°13.663 2°55.959 125.9 -999 344 6
2009-03-04 08:13:09 51°13.663 2°55.959 126 -999 21 -999
2009-03-04 08:13:13 51°13.663 2°55.959 126 -999 137 6
2009-03-04 08:13:18 51°13.663 2°55.959 125.9 -999 316 6
2009-03-04 08:13:23 51°13.663 2°55.959 125.8 -999 308 6
2009-03-04 08:13:28 51°13.661 2°55.959 125.7 -999 240 -999
2009-03-04 08:13:34 51°13.661 2°55.959 125.7 -999 162 -999
2009-03-04 08:13:38 51°13.661 2°55.959 125.7 -999 220 -999
2009-03-04 08:13:43 51°13.661 2°55.959 125.7 -999 183 6
2009-03-04 08:13:48 51°13.661 2°55.959 125.7 -999 212 6
2009-03-04 08:13:53 51°13.662 2°55.959 125.7 -999 46 6
2009-03-04 08:13:58 51°13.662 2°55.959 125.7 -999 55 5.9
2009-03-04 08:14:02 51°13.663 2°55.959 125.7 -999 228 6
2009-03-04 08:14:07 51°13.664 2°55.959 125.7 -999 41 5.9
2009-03-04 08:14:12 51°13.664 2°55.96 125.7 -999 162 6
2009-03-04 08:14:18 51°13.664 2°55.96 125.7 -999 30 -999
2009-03-04 08:14:22 51°13.664 2°55.96 125.7 -999 183 6
2009-03-04 08:14:28 51°13.664 2°55.959 125.7 -999 229 -999
2009-03-04 08:14:33 51°13.664 2°55.959 125.7 -999 264 6
2009-03-04 08:14:38 51°13.664 2°55.96 125.7 -999 166 -999
2009-03-04 08:14:43 51°13.664 2°55.96 125.7 -999 38 5.9
2009-03-04 08:14:48 51°13.664 2°55.96 125.7 -999 40 6
2009-03-04 08:14:53 51°13.664 2°55.96 125.7 -999 243 6
2009-03-04 08:14:58 51°13.664 2°55.96 125.7 -999 273 6
2009-03-04 08:15:03 51°13.665 2°55.96 125.7 -999 327 6
2009-03-04 08:15:07 51°13.665 2°55.96 125.8 -999 144 6
2009-03-04 08:15:12 51°13.665 2°55.96 125.9 -999 283 6
2009-03-04 08:15:17 51°13.665 2°55.96 125.9 -999 224 6
2009-03-04 08:15:22 51°13.665 2°55.96 125.9 -999 79 6
2009-03-04 08:15:27 51°13.665 2°55.96 125.9 -999 19 -999
2009-03-04 08:15:32 51°13.665 2°55.959 125.8 -999 20 5.9
2009-03-04 08:15:37 51°13.665 2°55.959 125.8 -999 242 5.9
2009-03-04 08:15:41 51°13.665 2°55.959 125.8 0.1 254 5.9
2009-03-04 08:15:46 51°13.665 2°55.959 125.8 -999 102 5.9
2009-03-04 08:15:51 51°13.665 2°55.959 125.8 -999 184 5.9
2009-03-04 08:15:56 51°13.665 2°55.959 125.9 -999 201 5.9
2009-03-04 08:16:01 51°13.665 2°55.959 125.9 -999 350 5.9
2009-03-04 08:16:06 51°13.664 2°55.959 125.9 -999 173 5.9
2009-03-04 08:16:11 51°13.664 2°55.96 125.9 -999 151 5.9
2009-03-04 08:16:16 51°13.664 2°55.959 126 -999 23 -999
2009-03-04 08:16:22 51°13.664 2°55.959 126 -999 220 -999
2009-03-04 08:16:27 51°13.664 2°55.959 126 -999 275 5.9
2009-03-04 08:16:32 51°13.664 2°55.959 126 -999 207 5.9
2009-03-04 08:16:37 51°13.664 2°55.959 126 -999 14 5.9
2009-03-04 08:16:42 51°13.664 2°55.959 126 -999 12 5.9
2009-03-04 08:16:47 51°13.664 2°55.959 126 -999 357 5.9
2009-03-04 08:16:51 51°13.664 2°55.959 126 -999 343 5.9
2009-03-04 08:16:56 51°13.664 2°55.959 126 -999 325 5.9
2009-03-04 08:17:02 51°13.664 2°55.959 125.9 -999 300 -999
2009-03-04 08:17:07 51°13.664 2°55.959 125.7 -999 88 -999
2009-03-04 08:17:13 51°13.664 2°55.959 125.6 -999 155 -999
2009-03-04 08:17:18 51°13.664 2°55.959 125.5 -999 109 -999
2009-03-04 08:17:23 51°13.664 2°55.959 125.6 -999 335 -999
2009-03-04 08:17:28 51°13.664 2°55.959 125.7 -999 21 5.9
2009-03-04 08:17:33 51°13.664 2°55.959 125.7 -999 184 5.9
2009-03-04 08:17:38 51°13.664 2°55.959 125.7 -999 79 5.9
2009-03-04 08:17:42 51°13.664 2°55.959 125.8 -999 174 5.9
2009-03-04 08:17:47 51°13.664 2°55.959 125.9 -999 158 5.9
2009-03-04 08:17:52 51°13.664 2°55.959 125.9 -999 154 5.9
2009-03-04 08:17:57 51°13.664 2°55.959 125.9 0.1 30 5.9
2009-03-04 08:18:02 51°13.664 2°55.959 125.9 -999 272 5.9
2009-03-04 08:18:07 51°13.664 2°55.959 125.9 -999 266 5.9
2009-03-04 08:18:11 51°13.664 2°55.959 125.8 -999 233 5.9
2009-03-04 08:18:16 51°13.664 2°55.959 125.7 -999 323 5.9
2009-03-04 08:18:21 51°13.664 2°55.959 125.7 -999 217 5.9
2009-03-04 08:18:26 51°13.664 2°55.959 125.7 -999 58 5.9
2009-03-04 08:18:31 51°13.664 2°55.959 125.7 -999 48 5.9
2009-03-04 08:18:36 51°13.664 2°55.959 125.7 -999 64 -999
2009-03-04 08:18:41 51°13.664 2°55.959 125.7 -999 228 -999
2009-03-04 08:18:47 51°13.664 2°55.959 125.7 -999 31 -999
2009-03-04 08:18:52 51°13.664 2°55.959 125.7 -999 299 -999
2009-03-04 08:18:58 51°13.664 2°55.959 125.7 -999 12 -999
2009-03-04 08:19:03 51°13.664 2°55.959 125.7 -999 51 -999
2009-03-04 08:19:08 51°13.664 2°55.959 125.7 -999 329 -999
2009-03-04 08:19:13 51°13.664 2°55.96 125.7 -999 316 -999
2009-03-04 08:19:18 51°13.664 2°55.96 125.7 0.1 90 -999
2009-03-04 08:19:23 51°13.664 2°55.96 125.7 -999 57 -999
2009-03-04 08:19:28 51°13.664 2°55.96 125.7 -999 335 -999
2009-03-04 08:19:33 51°13.664 2°55.96 125.7 -999 224 -999
2009-03-04 08:19:38 51°13.663 2°55.959 125.7 -999 51 5.9
2009-03-04 08:19:43 51°13.663 2°55.959 125.7 -999 39 5.9
2009-03-04 08:19:48 51°13.663 2°55.959 125.7 -999 24 5.9
2009-03-04 08:19:52 51°13.663 2°55.959 125.7 -999 149 5.9
2009-03-04 08:19:58 51°13.663 2°55.959 125.7 -999 107 -999
2009-03-04 08:20:03 51°13.663 2°55.959 125.7 -999 29 -999
2009-03-04 08:20:08 51°13.663 2°55.959 125.7 -999 177 -999
2009-03-04 08:20:13 51°13.663 2°55.959 125.6 -999 104 -999
2009-03-04 08:20:18 51°13.663 2°55.959 125.6 -999 3 -999
2009-03-04 08:20:23 51°13.664 2°55.959 125.6 -999 16 -999
2009-03-04 08:20:28 51°13.664 2°55.959 125.6 -999 332 -999
2009-03-04 08:20:33 51°13.664 2°55.959 125.6 -999 357 -999
2009-03-04 08:20:38 51°13.664 2°55.959 125.6 -999 22 -999
2009-03-04 08:20:43 51°13.664 2°55.959 125.5 -999 227 -999
2009-03-04 08:20:48 51°13.664 2°55.959 125.5 -999 85 -999
2009-03-04 08:20:53 51°13.664 2°55.959 125.5 -999 250 -999
2009-03-04 08:20:58 51°13.664 2°55.959 125.5 -999 226 -999
2009-03-04 08:21:03 51°13.664 2°55.959 125.6 -999 298 -999
2009-03-04 08:21:08 51°13.664 2°55.959 125.7 -999 171 5.9
2009-03-04 08:21:12 51°13.664 2°55.959 125.7 -999 133 5.9
2009-03-04 08:21:17 51°13.664 2°55.959 125.7 -999 94 5.9
2009-03-04 08:21:22 51°13.664 2°55.959 125.7 -999 329 5.9
2009-03-04 08:21:27 51°13.663 2°55.959 125.7 -999 204 -999
2009-03-04 08:21:33 51°13.664 2°55.959 125.7 -999 339 -999
2009-03-04 08:21:38 51°13.663 2°55.959 125.7 -999 38 5.9
2009-03-04 08:21:43 51°13.663 2°55.959 125.7 -999 146 5.9
2009-03-04 08:21:48 51°13.663 2°55.959 125.7 -999 218 5.9
2009-03-04 08:21:52 51°13.663 2°55.96 125.8 -999 10 5.9
2009-03-04 08:21:57 51°13.663 2°55.96 125.9 -999 31 5.9
2009-03-04 08:22:02 51°13.663 2°55.96 126 -999 251 5.9
2009-03-04 08:22:07 51°13.663 2°55.96 126 -999 245 5.9
2009-03-04 08:22:12 51°13.663 2°55.96 126 -999 103 -999
2009-03-04 08:22:18 51°13.663 2°55.96 126 0.1 69 -999
2009-03-04 08:22:23 51°13.663 2°55.96 126.4 0.1 201 -999
2009-03-04 08:22:28 51°13.663 2°55.96 126.5 -999 127 -999
2009-03-04 08:22:33 51°13.663 2°55.96 126.6 -999 119 -999
2009-03-04 08:22:38 51°13.663 2°55.96 126.8 -999 138 5.9
2009-03-04 08:22:43 51°13.663 2°55.96 126.9 -999 187 5.9
2009-03-04 08:22:48 51°13.663 2°55.96 127.1 -999 63 5.9
2009-03-04 08:22:52 51°13.663 2°55.96 127.3 -999 39 -999
2009-03-04 08:22:58 51°13.663 2°55.96 127.4 -999 153 5.9
2009-03-04 08:23:02 51°13.663 2°55.96 127.4 -999 4 5.9
2009-03-04 08:23:07 51°13.663 2°55.96 127.4 -999 91 5.9
2009-03-04 08:23:12 51°13.663 2°55.96 127.3 -999 184 5.9
2009-03-04 08:23:17 51°13.663 2°55.96 127.3 -999 187 -999
2009-03-04 08:23:22 51°13.663 2°55.96 127.4 0.1 7 5.9
2009-03-04 08:23:27 51°13.663 2°55.96 127.8 -999 296 -999
2009-03-04 08:23:32 51°13.663 2°55.96 127.9 0.1 184 -999
2009-03-04 08:23:38 51°13.663 2°55.959 127.9 -999 196 -999
2009-03-04 08:23:43 51°13.663 2°55.959 127.9 -999 316 5.9
2009-03-04 08:23:48 51°13.663 2°55.959 127.9 -999 251 5.9
2009-03-04 08:23:52 51°13.663 2°55.959 127.9 -999 332 5.9
2009-03-04 08:23:57 51°13.662 2°55.96 127.9 -999 89 5.9
2009-03-04 08:24:02 51°13.662 2°55.96 127.9 -999 177 -999
2009-03-04 08:24:08 51°13.662 2°55.96 128 -999 209 -999
2009-03-04 08:24:12 51°13.662 2°55.96 128.1 -999 354 -999
2009-03-04 08:24:18 51°13.662 2°55.96 128.3 -999 283 -999
2009-03-04 08:24:23 51°13.662 2°55.959 128.6 0.1 244 5.9
2009-03-04 08:24:28 51°13.662 2°55.959 129 -999 311 -999
2009-03-04 08:24:33 51°13.662 2°55.959 129.5 0.1 232 -999
2009-03-04 08:24:38 51°13.662 2°55.959 130 0.1 14 -999
2009-03-04 08:24:43 51°13.662 2°55.959 130.1 -999 31 5.9
2009-03-04 08:24:48 51°13.662 2°55.959 130.2 -999 207 -999
2009-03-04 08:24:53 51°13.662 2°55.959 130.2 0.1 65 5.9
2009-03-04 08:24:58 51°13.662 2°55.959 130.2 0.1 71 -999
2009-03-04 08:25:03 51°13.662 2°55.959 130 0.1 75 -999
2009-03-04 08:25:08 51°13.662 2°55.96 129.4 0.2 76 5.9
2009-03-04 08:25:12 51°13.662 2°55.96 128.5 0.1 81 5.9
2009-03-04 08:25:18 51°13.662 2°55.96 127.2 -999 233 5.9
2009-03-04 08:25:22 51°13.662 2°55.96 126.1 -999 320 5.9
2009-03-04 08:25:27 51°13.662 2°55.96 125.1 -999 203 -999
2009-03-04 08:25:32 51°13.662 2°55.96 124.4 -999 179 5.9
2009-03-04 08:25:38 51°13.662 2°55.96 123.7 0.1 192 -999
2009-03-04 08:25:42 51°13.662 2°55.96 123.1 0.1 247 5.9
2009-03-04 08:25:47 51°13.662 2°55.96 122.4 -999 114 5.9
2009-03-04 08:25:52 51°13.662 2°55.96 121.8 0.1 173 5.9
2009-03-04 08:25:56 51°13.662 2°55.96 120.9 0.1 205 5.9
2009-03-04 08:26:01 51°13.662 2°55.96 120.2 0.1 204 5.9
2009-03-04 08:26:07 51°13.662 2°55.96 119.2 -999 211 5.9
2009-03-04 08:26:11 51°13.662 2°55.96 118.4 0.1 189 5.9
2009-03-04 08:26:16 51°13.662 2°55.96 117.4 0.1 190 5.9
2009-03-04 08:26:21 51°13.661 2°55.96 116.6 0.1 180 -999
2009-03-04 08:26:26 51°13.661 2°55.96 115.5 0.1 186 -999
2009-03-04 08:26:31 51°13.661 2°55.959 114.8 0.1 205 5.9
2009-03-04 08:26:36 51°13.661 2°55.959 114 -999 213 -999
2009-03-04 08:26:42 51°13.661 2°55.959 113.3 0.1 194 -999
2009-03-04 08:26:47 51°13.661 2°55.959 112.6 0.1 207 -999
2009-03-04 08:26:52 51°13.661 2°55.959 112.1 -999 246 6
2009-03-04 08:26:57 51°13.661 2°55.959 111.5 0.2 302 6
2009-03-04 08:27:02 51°13.661 2°55.958 111.1 0.6 298 6
2009-03-04 08:27:07 51°13.662 2°55.957 110.8 1 300 -999
2009-03-04 08:27:12 51°13.662 2°55.954 110.6 1.4 297 5.9
2009-03-04 08:27:17 51°13.663 2°55.951 110.3 1.8 297 5.8
2009-03-04 08:27:22 51°13.664 2°55.946 110 2.1 296 6.1
2009-03-04 08:27:27 51°13.666 2°55.942 109.6 2.4 295 -999
2009-03-04 08:27:32 51°13.667 2°55.937 108.7 2.6 294 -999
2009-03-04 08:27:38 51°13.669 2°55.93 107.5 2.8 293 -999
2009-03-04 08:27:43 51°13.671 2°55.924 106.3 2.9 292 -999
2009-03-04 08:27:48 51°13.672 2°55.918 104.6 3 290 -999
2009-03-04 08:27:53 51°13.674 2°55.912 103 3 289 -999
2009-03-04 08:27:58 51°13.675 2°55.906 101.2 2.8 286 -999
2009-03-04 08:28:03 51°13.676 2°55.9 98.8 2.5 287 -999
2009-03-04 08:28:08 51°13.677 2°55.896 96.7 2.1 286 -999
2009-03-04 08:28:13 51°13.677 2°55.893 95.3 1.5 292 -999
2009-03-04 08:28:18 51°13.678 2°55.891 95 1.2 295 -999
2009-03-04 08:28:23 51°13.679 2°55.888 95.7 1.2 295 -999
2009-03-04 08:28:28 51°13.679 2°55.886 96 1.4 295 -999
2009-03-04 08:28:33 51°13.68 2°55.883 95.9 1.5 290 -999
2009-03-04 08:28:38 51°13.681 2°55.879 95 1.7 287 7.7
2009-03-04 08:28:42 51°13.681 2°55.876 93.9 1.9 285 7.8
2009-03-04 08:28:47 51°13.682 2°55.871 92.5 2 281 7.8
2009-03-04 08:28:52 51°13.683 2°55.867 91 2.2 280 8.1
2009-03-04 08:28:57 51°13.683 2°55.862 89.6 2.3 279 4.5
2009-03-04 08:29:03 51°13.684 2°55.855 88.6 2.5 278 4.5
2009-03-04 08:29:08 51°13.684 2°55.85 87.4 2.6 276 -999
2009-03-04 08:29:13 51°13.684 2°55.844 85.8 2.6 274 -999
2009-03-04 08:29:18 51°13.685 2°55.838 84.2 2.7 272 -999
2009-03-04 08:29:23 51°13.685 2°55.832 82.2 2.8 270 -999
2009-03-04 08:29:28 51°13.685 2°55.825 80.7 3 268 -999
2009-03-04 08:29:33 51°13.684 2°55.818 79.4 3 267 -999
2009-03-04 08:29:38 51°13.684 2°55.812 78 2.9 266 -999
2009-03-04 08:29:43 51°13.684 2°55.806 76.9 2.8 264 -999
2009-03-04 08:29:48 51°13.683 2°55.8 75.6 2.8 263 -999
2009-03-04 08:29:53 51°13.683 2°55.794 74.5 2.7 263 -999
2009-03-04 08:29:58 51°13.682 2°55.788 73 2.4 263 -999
2009-03-04 08:30:03 51°13.682 2°55.784 71 1.9 263 -999
2009-03-04 08:30:08 51°13.682 2°55.781 68.4 1.5 266 -999
2009-03-04 08:30:13 51°13.682 2°55.779 65.6 1.1 272 -999
2009-03-04 08:30:18 51°13.682 2°55.777 61.6 0.6 292 -999
2009-03-04 08:30:23 51°13.683 2°55.776 56.8 0.6 332 10.9
2009-03-04 08:30:28 51°13.684 2°55.777 53 0.7 10 10.8
2009-03-04 08:30:32 51°13.685 2°55.777 50 1.3 17 10.7
2009-03-04 08:30:37 51°13.687 2°55.778 43.8 1.5 17 10.6
2009-03-04 08:30:42 51°13.689 2°55.779 36.6 1.6 15 10.8
2009-03-04 08:30:47 51°13.691 2°55.78 29.1 1.7 14 10.8
2009-03-04 08:30:52 51°13.694 2°55.781 23.5 1.7 9 4.5
2009-03-04 08:30:57 51°13.696 2°55.781 19.5 1.6 8 -999
2009-03-04 08:31:02 51°13.698 2°55.782 15.6 1.4 6 10.9
2009-03-04 08:31:07 51°13.699 2°55.782 12.6 0.9 358 -999
2009-03-04 08:31:12 51°13.7 2°55.781 10.3 0.4 348 11
2009-03-04 08:31:17 51°13.7 2°55.781 7.1 0.2 255 11
2009-03-04 08:31:22 51°13.7 2°55.781 3.3 0.1 249 -999
2009-03-04 08:31:27 51°13.7 2°55.78 1.1 0.2 286 -999
2009-03-04 08:31:32 51°13.7 2°55.78 359.4 0.2 299 4.5
2009-03-04 08:31:37 51°13.7 2°55.779 358 0.5 322 4.8
2009-03-04 08:31:43 51°13.701 2°55.779 356.7 0.9 338 -999
2009-03-04 08:31:48 51°13.703 2°55.778 353.5 1.2 336 11.2
2009-03-04 08:31:53 51°13.705 2°55.776 349.2 1.5 338 -999
2009-03-04 08:31:58 51°13.707 2°55.774 343 2.1 335 -999
2009-03-04 08:32:03 51°13.71 2°55.772 336 2.5 331 -999
2009-03-04 08:32:08 51°13.714 2°55.768 330.9 3 329 -999
2009-03-04 08:32:13 51°13.718 2°55.764 327.8 3.7 324 -999
2009-03-04 08:32:18 51°13.723 2°55.758 325.1 4.6 322 -999
2009-03-04 08:32:23 51°13.728 2°55.751 322.3 5.2 320 -999
2009-03-04 08:32:28 51°13.734 2°55.742 320.2 5.6 319 -999
2009-03-04 08:32:33 51°13.74 2°55.733 320.2 6.1 319 -999
2009-03-04 08:32:38 51°13.748 2°55.724 321.4 6.6 321 -999
2009-03-04 08:32:43 51°13.755 2°55.714 321.7 7 321 10.7
2009-03-04 08:32:48 51°13.763 2°55.705 322.5 7.3 324 10
2009-03-04 08:32:53 51°13.772 2°55.695 323.8 7.6 324 -999
2009-03-04 08:32:58 51°13.781 2°55.685 325.5 7.8 326 9.8
2009-03-04 08:33:03 51°13.79 2°55.676 326.9 8 326 9.9
2009-03-04 08:33:07 51°13.797 2°55.668 327.8 8.1 328 9.9
2009-03-04 08:33:12 51°13.807 2°55.659 328.7 8.3 330 9.9
2009-03-04 08:33:17 51°13.818 2°55.65 330.4 8.4 331 9.9
2009-03-04 08:33:22 51°13.828 2°55.641 331.9 8.5 332 9.8
2009-03-04 08:33:27 51°13.839 2°55.632 333 8.6 333 9.7
2009-03-04 08:33:31 51°13.848 2°55.625 333.6 8.7 332 9.7
2009-03-04 08:33:36 51°13.858 2°55.616 333.8 8.8 333 9.7
2009-03-04 08:33:41 51°13.869 2°55.608 334.4 8.8 334 9.7
2009-03-04 08:33:46 51°13.88 2°55.599 334.9 8.9 334 9.7
2009-03-04 08:33:51 51°13.892 2°55.59 334.9 9 334 9.7
2009-03-04 08:33:56 51°13.903 2°55.582 335.7 9.1 335 9.8
2009-03-04 08:34:00 51°13.912 2°55.575 336.4 9.1 334 9.8
2009-03-04 08:34:05 51°13.923 2°55.566 336.4 9.1 335 9.8
2009-03-04 08:34:10 51°13.935 2°55.558 336.6 9.2 336 9.8
2009-03-04 08:34:15 51°13.946 2°55.549 336.9 9.2 335 9.8
2009-03-04 08:34:19 51°13.956 2°55.542 336.7 9.2 335 9.8
2009-03-04 08:34:24 51°13.968 2°55.534 337.3 9.3 337 9.8
2009-03-04 08:34:29 51°13.979 2°55.526 337.4 9.3 335 9.7
2009-03-04 08:34:35 51°13.993 2°55.515 336.9 9.3 335 9.7
2009-03-04 08:34:39 51°14.002 2°55.509 336.9 9.2 335 9.8
2009-03-04 08:34:44 51°14.014 2°55.5 337.3 9.2 335 9.7
2009-03-04 08:34:48 51°14.023 2°55.494 337.3 9.2 335 9.8
2009-03-04 08:34:55 51°14.039 2°55.482 337.1 9.2 335 9.8
2009-03-04 08:34:59 51°14.049 2°55.475 336.9 9.1 336 9.8
2009-03-04 08:35:04 51°14.06 2°55.466 337.1 9.2 335 9.9
2009-03-04 08:35:09 51°14.072 2°55.458 337 9.3 335 9.9
2009-03-04 08:35:15 51°14.086 2°55.447 336.5 9.3 334 9.9
2009-03-04 08:35:19 51°14.095 2°55.44 336.5 9.3 334 9.9
2009-03-04 08:35:25 51°14.109 2°55.429 336.6 9.3 334 9.9
2009-03-04 08:35:29 51°14.118 2°55.422 336 9.4 333 10
2009-03-04 08:35:34 51°14.13 2°55.412 335.4 9.3 334 10
2009-03-04 08:35:39 51°14.142 2°55.403 335.4 9.3 333 -999
2009-03-04 08:35:45 51°14.155 2°55.391 333.9 9.3 331 -999
2009-03-04 08:35:51 51°14.168 2°55.379 332.5 9.3 330 -999
2009-03-04 08:35:56 51°14.179 2°55.368 331.6 9.3 329 10.2
2009-03-04 08:36:01 51°14.19 2°55.357 330.2 9.4 327 10.3
2009-03-04 08:36:07 51°14.203 2°55.343 328.3 9.5 326 -999
2009-03-04 08:36:12 51°14.214 2°55.33 326.9 9.5 324 -999
2009-03-04 08:36:18 51°14.226 2°55.314 325.5 9.6 322 -999
2009-03-04 08:36:23 51°14.236 2°55.301 323.7 9.6 320 10.4
2009-03-04 08:36:28 51°14.246 2°55.287 321.6 9.6 318 10.8
2009-03-04 08:36:32 51°14.254 2°55.275 320 9.6 316 10.4
2009-03-04 08:36:38 51°14.265 2°55.257 318.7 9.6 315 11
2009-03-04 08:36:42 51°14.273 2°55.244 316.9 9.8 313 10.3
2009-03-04 08:36:47 51°14.282 2°55.228 314.8 9.8 313 10.5
2009-03-04 08:36:52 51°14.291 2°55.213 314 9.7 313 11.1
2009-03-04 08:36:57 51°14.3 2°55.197 314 9.8 312 11.1
2009-03-04 08:37:02 51°14.309 2°55.18 313.6 9.9 311 10.5
2009-03-04 08:37:07 51°14.319 2°55.164 312.9 10 311 10.9
2009-03-04 08:37:11 51°14.326 2°55.15 312.7 10 312 10.5
2009-03-04 08:37:16 51°14.335 2°55.134 312.9 10 311 10.5
2009-03-04 08:37:21 51°14.344 2°55.116 312.9 10.1 310 10.5
2009-03-04 08:37:26 51°14.353 2°55.099 311.8 10.2 309 10.6
2009-03-04 08:37:31 51°14.362 2°55.081 310.5 10.3 308 10.6
2009-03-04 08:37:35 51°14.369 2°55.066 309.2 10.4 307 10.5
2009-03-04 08:37:40 51°14.378 2°55.048 308.7 10.5 308 10.6
2009-03-04 08:37:45 51°14.388 2°55.029 309.4 10.6 308 10.4
2009-03-04 08:37:50 51°14.397 2°55.01 309.4 10.8 308 10.3
2009-03-04 08:37:55 51°14.406 2°54.991 310 10.9 309 10.4
2009-03-04 08:37:59 51°14.414 2°54.976 310.5 11.1 308 10.4
2009-03-04 08:38:03 51°14.421 2°54.96 310.8 11.1 308 10.4
2009-03-04 08:38:09 51°14.433 2°54.937 310.4 11.3 306 10.5
2009-03-04 08:38:15 51°14.444 2°54.912 308.6 11.4 306 10.7
2009-03-04 08:38:19 51°14.452 2°54.896 308.3 11.5 307 10.7
2009-03-04 08:38:24 51°14.462 2°54.875 309.4 11.6 307 10.6
2009-03-04 08:38:29 51°14.472 2°54.855 310.5 11.8 307 10.6
2009-03-04 08:38:34 51°14.481 2°54.833 309 12 304 10.6
2009-03-04 08:38:39 51°14.49 2°54.81 305.6 12.1 302 10.7
2009-03-04 08:38:43 51°14.497 2°54.792 303.5 12.1 301 10.6
2009-03-04 08:38:49 51°14.508 2°54.765 303.7 12.1 303 10.7
2009-03-04 08:38:54 51°14.517 2°54.742 304.2 12.2 302 10.7
2009-03-04 08:38:59 51°14.526 2°54.719 303.6 12.2 302 10.5
2009-03-04 08:39:04 51°14.535 2°54.696 304 12.3 303 10.6
2009-03-04 08:39:09 51°14.545 2°54.674 304.5 12.3 303 10.4
2009-03-04 08:39:15 51°14.556 2°54.645 303.9 12.4 301 10.3
2009-03-04 08:39:19 51°14.563 2°54.627 303.9 12.3 304 10.3
2009-03-04 08:39:23 51°14.571 2°54.609 304.6 12.3 303 10.3
2009-03-04 08:39:29 51°14.582 2°54.582 304.6 12.4 303 10.3
2009-03-04 08:39:34 51°14.591 2°54.558 303.9 12.4 301 10.3
2009-03-04 08:39:39 51°14.6 2°54.535 303 12.3 301 10.3
2009-03-04 08:39:44 51°14.608 2°54.511 301.9 12.3 300 10.3
2009-03-04 08:39:49 51°14.617 2°54.488 301.6 12.3 300 10.3
2009-03-04 08:39:54 51°14.625 2°54.464 300.9 12.3 300 10.4
2009-03-04 08:39:59 51°14.634 2°54.44 300.6 12.4 299 10.4
2009-03-04 08:40:03 51°14.64 2°54.421 300.1 12.2 300 10.3
2009-03-04 08:40:09 51°14.65 2°54.393 300.1 12.3 299 10.3
2009-03-04 08:40:14 51°14.659 2°54.369 300 12.3 300 10.3
2009-03-04 08:40:19 51°14.667 2°54.345 299.9 12.3 299 10.3
2009-03-04 08:40:24 51°14.676 2°54.322 300.1 12.3 300 10.3
2009-03-04 08:40:29 51°14.684 2°54.298 300.4 12.3 300 10.3
2009-03-04 08:40:34 51°14.693 2°54.275 300.6 12.3 300 10.4
2009-03-04 08:40:39 51°14.701 2°54.251 300.2 12.3 298 10.5
2009-03-04 08:40:43 51°14.708 2°54.232 299.2 12.3 299 10.3
2009-03-04 08:40:49 51°14.718 2°54.203 299.2 12.2 298 10.2
2009-03-04 08:40:54 51°14.725 2°54.179 298.5 12.2 298 10.1
2009-03-04 08:40:59 51°14.733 2°54.156 298.5 12.1 298 10.7
2009-03-04 08:41:04 51°14.741 2°54.132 298.6 12.2 298 10.1
2009-03-04 08:41:09 51°14.749 2°54.108 298.2 12.2 298 10
2009-03-04 08:41:14 51°14.757 2°54.084 298.2 12.2 298 10.2
2009-03-04 08:41:19 51°14.765 2°54.06 298.4 12.2 298 9.8
2009-03-04 08:41:24 51°14.772 2°54.037 298.4 12.1 298 9.7
2009-03-04 08:41:29 51°14.78 2°54.014 298.5 12.1 298 9.7
2009-03-04 08:41:35 51°14.79 2°53.985 299.4 12.1 299 9.6
2009-03-04 08:41:39 51°14.797 2°53.967 300.3 12.1 299 9.6
2009-03-04 08:41:43 51°14.803 2°53.948 300.6 12 300 9.5
2009-03-04 08:41:49 51°14.814 2°53.921 301 12 300 9.5
2009-03-04 08:41:54 51°14.822 2°53.898 301.3 12.1 301 9.5
2009-03-04 08:41:59 51°14.831 2°53.875 301.8 12.1 301 9.6
2009-03-04 08:42:04 51°14.839 2°53.852 302.2 12.2 301 9.7
2009-03-04 08:42:09 51°14.848 2°53.829 301.5 12.1 299 9.7
2009-03-04 08:42:14 51°14.856 2°53.805 300.6 12.1 299 9.7
2009-03-04 08:42:19 51°14.863 2°53.782 299.1 12.1 297 9.6
2009-03-04 08:42:23 51°14.87 2°53.763 297.7 12.1 297 9.7
2009-03-04 08:42:29 51°14.878 2°53.734 296.9 12.2 296 9.7
2009-03-04 08:42:34 51°14.886 2°53.71 296.4 12.1 295 9.7
2009-03-04 08:42:39 51°14.892 2°53.685 295.2 12 294 9.7
2009-03-04 08:42:44 51°14.899 2°53.661 294.3 12 295 9.8
2009-03-04 08:42:49 51°14.906 2°53.637 294.2 11.9 293 9.7
2009-03-04 08:42:54 51°14.912 2°53.613 293.5 12 293 9.8
2009-03-04 08:42:59 51°14.919 2°53.588 293.3 12.1 293 9.9
2009-03-04 08:43:03 51°14.924 2°53.568 293.3 12.1 293 9.8
2009-03-04 08:43:09 51°14.932 2°53.539 293.3 12 293 9.6
2009-03-04 08:43:15 51°14.94 2°53.509 293.3 12.1 293 9.7
2009-03-04 08:43:19 51°14.945 2°53.49 293.4 12 293 9.7
2009-03-04 08:43:24 51°14.951 2°53.465 293.3 12.1 292 9.8
2009-03-04 08:43:29 51°14.958 2°53.44 293.1 12.1 293 9.8
2009-03-04 08:43:34 51°14.964 2°53.415 293.3 12.2 292 9.9
2009-03-04 08:43:39 51°14.971 2°53.391 293.3 12.2 293 9.9
2009-03-04 08:43:43 51°14.976 2°53.371 293.5 12.2 293 10
2009-03-04 08:43:49 51°14.984 2°53.341 293.5 12.3 292 10
2009-03-04 08:43:54 51°14.991 2°53.316 293.3 12.2 292 10
2009-03-04 08:43:59 51°14.997 2°53.291 293.2 12.1 292 9.9
2009-03-04 08:44:04 51°15.003 2°53.266 293.3 12.2 292 9.9
2009-03-04 08:44:09 51°15.01 2°53.241 293.3 12.2 292 9.9
2009-03-04 08:44:14 51°15.016 2°53.216 293.4 12.2 292 9.8
2009-03-04 08:44:19 51°15.023 2°53.191 293.8 12.2 292 9.9
2009-03-04 08:44:24 51°15.029 2°53.166 293.7 12.2 293 9.8
2009-03-04 08:44:29 51°15.036 2°53.141 293.7 12.3 293 10
2009-03-04 08:44:35 51°15.044 2°53.111 293.9 12.2 293 9.9
2009-03-04 08:44:39 51°15.049 2°53.091 293.9 12.1 293 9.7
2009-03-04 08:44:44 51°15.055 2°53.067 294 12.2 293 9.9
2009-03-04 08:44:49 51°15.062 2°53.041 293.9 12.3 293 10.1
2009-03-04 08:44:54 51°15.068 2°53.016 293.5 12.3 293 10.1
2009-03-04 08:44:59 51°15.075 2°52.991 293.3 12.2 292 10.1
2009-03-04 08:45:03 51°15.08 2°52.971 293.5 12.3 293 10.1
2009-03-04 08:45:09 51°15.088 2°52.942 293.5 12.3 292 10.2
2009-03-04 08:45:14 51°15.095 2°52.917 293.6 12.3 293 10.2
2009-03-04 08:45:19 51°15.101 2°52.892 293.6 12.2 293 10.3
2009-03-04 08:45:24 51°15.108 2°52.867 293.9 12.3 293 10.4
2009-03-04 08:45:29 51°15.114 2°52.842 294 12.3 293 10.4
2009-03-04 08:45:35 51°15.122 2°52.812 293.9 12.2 293 10.4
2009-03-04 08:45:39 51°15.128 2°52.792 293.6 12.2 293 10.4
2009-03-04 08:45:43 51°15.133 2°52.772 293.9 12.2 293 10.5
2009-03-04 08:45:49 51°15.141 2°52.742 293.6 12.2 293 10.6
2009-03-04 08:45:54 51°15.147 2°52.717 293.5 12.1 292 10.6
2009-03-04 08:45:59 51°15.153 2°52.691 292.7 12.2 291 10.6
2009-03-04 08:46:04 51°15.159 2°52.666 291.5 12.3 291 10.6
2009-03-04 08:46:09 51°15.165 2°52.64 291.1 12.2 289 10.7
2009-03-04 08:46:14 51°15.17 2°52.615 289.8 12.2 288 10.7
2009-03-04 08:46:19 51°15.175 2°52.589 289 12.3 289 10.7
2009-03-04 08:46:23 51°15.18 2°52.569 289.4 12.3 288 10.8
2009-03-04 08:46:29 51°15.186 2°52.538 289.2 12.3 289 10.8
2009-03-04 08:46:34 51°15.192 2°52.512 289.1 12.3 289 10.8
2009-03-04 08:46:39 51°15.197 2°52.486 289 12.2 287 10.8
2009-03-04 08:46:44 51°15.202 2°52.46 288.7 12.2 289 10.8
2009-03-04 08:46:49 51°15.207 2°52.434 289 12.3 287 10.9
2009-03-04 08:46:54 51°15.213 2°52.409 288.9 12.2 288 10.9
2009-03-04 08:46:59 51°15.218 2°52.383 288.6 12.2 288 10.9
2009-03-04 08:47:03 51°15.222 2°52.362 289.3 12.3 290 11
2009-03-04 08:47:09 51°15.229 2°52.332 289.7 12.3 289 11
2009-03-04 08:47:14 51°15.235 2°52.306 289.8 12.2 289 11
2009-03-04 08:47:19 51°15.24 2°52.28 289.5 12.3 288 11.1
2009-03-04 08:47:24 51°15.245 2°52.254 289 12.3 288 11.2
2009-03-04 08:47:29 51°15.25 2°52.229 288.9 12.3 288 11.1
2009-03-04 08:47:34 51°15.256 2°52.203 289.3 12.3 289 11.3
2009-03-04 08:47:39 51°15.261 2°52.177 289.1 12.3 288 11.3
2009-03-04 08:47:43 51°15.265 2°52.157 288.8 12.3 289 11.4
2009-03-04 08:47:49 51°15.272 2°52.125 289 12.3 288 11.4
2009-03-04 08:47:54 51°15.277 2°52.099 288.5 12.3 288 11.4
2009-03-04 08:47:59 51°15.283 2°52.074 289 12.3 288 11.4
2009-03-04 08:48:04 51°15.288 2°52.047 288.9 12.3 287 11.5
2009-03-04 08:48:09 51°15.293 2°52.022 288.5 12.3 288 11.6
2009-03-04 08:48:14 51°15.298 2°51.996 288.7 12.4 288 11.6
2009-03-04 08:48:19 51°15.304 2°51.97 288.9 12.4 289 11.6
2009-03-04 08:48:24 51°15.309 2°51.944 289 12.4 288 11.7
2009-03-04 08:48:29 51°15.315 2°51.918 289.2 12.5 289 11.8
2009-03-04 08:48:34 51°15.32 2°51.892 289.1 12.3 288 11.8
2009-03-04 08:48:39 51°15.326 2°51.866 289 12.4 288 11.8
2009-03-04 08:48:43 51°15.33 2°51.846 289 12.3 287 12
2009-03-04 08:48:49 51°15.336 2°51.814 288.5 12.2 286 11.9
2009-03-04 08:48:54 51°15.34 2°51.788 286.4 12.1 285 11.8
2009-03-04 08:48:59 51°15.343 2°51.763 283.5 12 280 11.9
2009-03-04 08:49:04 51°15.345 2°51.736 280.2 12 279 12
2009-03-04 08:49:09 51°15.348 2°51.71 278 12 276 12
2009-03-04 08:49:14 51°15.349 2°51.684 275.7 12 274 12.1
2009-03-04 08:49:19 51°15.35 2°51.657 273.8 11.9 272 12.1
2009-03-04 08:49:23 51°15.35 2°51.636 272.1 12 271 12.2
2009-03-04 08:49:29 51°15.351 2°51.604 271 12.1 270 12.2
2009-03-04 08:49:34 51°15.35 2°51.577 269.7 12.1 270 12.2
2009-03-04 08:49:39 51°15.35 2°51.551 269.4 12.1 269 12.2
2009-03-04 08:49:44 51°15.35 2°51.524 268.6 12.1 269 12.2
2009-03-04 08:49:49 51°15.349 2°51.497 267.9 12.1 267 12.3
2009-03-04 08:49:54 51°15.348 2°51.47 267.7 12.2 268 12.4
2009-03-04 08:49:59 51°15.347 2°51.443 267.2 12.2 266 12.4
2009-03-04 08:50:03 51°15.346 2°51.422 266.3 12.2 267 12.3
2009-03-04 08:50:09 51°15.345 2°51.39 266.5 12.2 267 12.4
2009-03-04 08:50:14 51°15.345 2°51.363 267.1 12.2 269 12.4
2009-03-04 08:50:19 51°15.345 2°51.335 267.8 12.3 268 12.4
2009-03-04 08:50:24 51°15.344 2°51.308 268.1 12.3 270 12.4
2009-03-04 08:50:29 51°15.344 2°51.281 268.5 12.4 269 12.5
2009-03-04 08:50:35 51°15.344 2°51.249 268.5 12.3 270 12.4
2009-03-04 08:50:39 51°15.344 2°51.227 268.6 12.3 270 12.4
2009-03-04 08:50:43 51°15.344 2°51.205 269.3 12.2 272 12.4
2009-03-04 08:50:49 51°15.345 2°51.173 270.7 12.2 272 12.5
2009-03-04 08:50:54 51°15.345 2°51.146 271.4 12.3 273 12.5
2009-03-04 08:50:59 51°15.346 2°51.118 272.3 12.3 274 12.6
2009-03-04 08:51:03 51°15.347 2°51.096 272.9 12.3 274 12.6
2009-03-04 08:51:09 51°15.349 2°51.064 273.4 12.3 274 12.6
2009-03-04 08:51:14 51°15.35 2°51.037 273.8 12.3 275 12.5
2009-03-04 08:51:19 51°15.351 2°51.009 274.2 12.4 275 12.5
2009-03-04 08:51:24 51°15.353 2°50.982 274.5 12.4 276 12.5
2009-03-04 08:51:29 51°15.354 2°50.955 274.7 12.3 274 12.5
2009-03-04 08:51:34 51°15.356 2°50.928 274.1 12.4 274 12.6
2009-03-04 08:51:39 51°15.357 2°50.901 273.5 12.4 274 12.6
2009-03-04 08:51:45 51°15.359 2°50.868 273 12.3 274 12.6
2009-03-04 08:51:49 51°15.36 2°50.846 272.9 12.3 275 12.5
2009-03-04 08:51:54 51°15.361 2°50.819 273.4 12.3 275 12.6
2009-03-04 08:51:59 51°15.363 2°50.792 274.2 12.4 275 12.6
2009-03-04 08:52:03 51°15.364 2°50.77 274.4 12.3 276 12.6
2009-03-04 08:52:09 51°15.366 2°50.738 274.5 12.3 275 12.7
2009-03-04 08:52:15 51°15.368 2°50.705 274.5 12.3 276 12.7
2009-03-04 08:52:19 51°15.369 2°50.683 275 12.3 276 12.6
2009-03-04 08:52:24 51°15.371 2°50.656 275.3 12.3 276 12.6
2009-03-04 08:52:29 51°15.373 2°50.629 275.5 12.3 276 12.7
2009-03-04 08:52:35 51°15.375 2°50.597 275.3 12.4 276 12.6
2009-03-04 08:52:39 51°15.376 2°50.575 275.6 12.4 276 12.7
2009-03-04 08:52:43 51°15.378 2°50.553 275.7 12.3 277 12.7
2009-03-04 08:52:49 51°15.38 2°50.521 275.2 12.3 276 12.7
2009-03-04 08:52:54 51°15.383 2°50.494 275.7 12.3 277 12.7
2009-03-04 08:52:59 51°15.384 2°50.466 275.4 12.3 276 12.7
2009-03-04 08:53:04 51°15.386 2°50.439 274.8 12.3 276 12.7
2009-03-04 08:53:09 51°15.387 2°50.412 274.2 12.4 276 12.7
2009-03-04 08:53:14 51°15.39 2°50.385 275 12.3 276 12.7
2009-03-04 08:53:19 51°15.391 2°50.358 275.1 12.4 276 12.7
2009-03-04 08:53:23 51°15.393 2°50.337 275.3 12.4 276 12.7
2009-03-04 08:53:29 51°15.395 2°50.304 275.7 12.4 277 12.7
2009-03-04 08:53:34 51°15.397 2°50.277 275.9 12.3 276 12.7
2009-03-04 08:53:39 51°15.399 2°50.25 275.5 12.4 277 12.7
2009-03-04 08:53:44 51°15.401 2°50.222 275.6 12.4 276 12.8
2009-03-04 08:53:49 51°15.403 2°50.195 275.1 12.4 276 12.7
2009-03-04 08:53:54 51°15.405 2°50.168 274.7 12.2 276 12.8
2009-03-04 08:53:59 51°15.406 2°50.141 273.8 12.2 275 12.7
2009-03-04 08:54:03 51°15.407 2°50.12 273.6 12.3 275 12.9
2009-03-04 08:54:09 51°15.409 2°50.087 273.7 12.3 275 12.7
2009-03-04 08:54:15 51°15.411 2°50.055 274.2 12.3 276 12.8
2009-03-04 08:54:19 51°15.413 2°50.033 274.7 12.3 276 12.8
2009-03-04 08:54:24 51°15.414 2°50.007 274.9 12.2 276 12.8
2009-03-04 08:54:30 51°15.417 2°49.974 275.3 12.3 277 12.8
2009-03-04 08:54:35 51°15.419 2°49.947 275.3 12.2 276 12.7
2009-03-04 08:54:39 51°15.421 2°49.926 275.2 12.3 277 12.8
2009-03-04 08:54:43 51°15.422 2°49.904 275.9 12.3 277 12.8
2009-03-04 08:54:49 51°15.425 2°49.872 276 12.3 278 12.8
2009-03-04 08:54:54 51°15.427 2°49.845 275.7 12.2 277 12.8
2009-03-04 08:54:59 51°15.43 2°49.819 275.5 12.2 278 12.7
2009-03-04 08:55:03 51°15.431 2°49.797 276 12.1 276 12.7
2009-03-04 08:55:09 51°15.433 2°49.766 275.3 12.2 277 12.8
2009-03-04 08:55:15 51°15.436 2°49.734 275.1 12.2 277 12.9
2009-03-04 08:55:19 51°15.437 2°49.712 275.3 12.2 277 12.8
2009-03-04 08:55:24 51°15.439 2°49.686 275.7 12.2 276 12.8
2009-03-04 08:55:28 51°15.441 2°49.664 275.5 12.1 276 12.8
2009-03-04 08:55:34 51°15.443 2°49.632 275.3 12.1 276 12.9
2009-03-04 08:55:39 51°15.444 2°49.606 275.2 12.2 275 12.9
2009-03-04 08:55:44 51°15.446 2°49.579 275.2 12.2 276 13
2009-03-04 08:55:49 51°15.448 2°49.552 275.4 12.2 276 12.9
2009-03-04 08:55:54 51°15.45 2°49.526 275.5 12.2 276 12.9
2009-03-04 08:55:59 51°15.452 2°49.499 275.7 12.2 277 12.9
2009-03-04 08:56:03 51°15.453 2°49.477 275.7 12.2 276 12.9
2009-03-04 08:56:09 51°15.455 2°49.445 275.5 12.2 276 13
2009-03-04 08:56:14 51°15.457 2°49.419 275.5 12.2 276 12.9
2009-03-04 08:56:19 51°15.459 2°49.392 275.5 12.2 275 12.9
2009-03-04 08:56:24 51°15.46 2°49.365 275.3 12.3 276 12.9
2009-03-04 08:56:29 51°15.462 2°49.338 275.3 12.3 276 12.9
2009-03-04 08:56:34 51°15.464 2°49.311 275.5 12.2 276 12.9
2009-03-04 08:56:39 51°15.466 2°49.284 275.2 12.2 276 12.9
2009-03-04 08:56:43 51°15.467 2°49.263 275.6 12.2 277 12.8
2009-03-04 08:56:49 51°15.469 2°49.231 275.7 12.2 276 12.8
2009-03-04 08:56:54 51°15.471 2°49.205 275.8 12.2 276 12.7
2009-03-04 08:56:59 51°15.473 2°49.178 275.7 12.3 276 12.8
2009-03-04 08:57:04 51°15.474 2°49.151 274.9 12.2 274 12.7
2009-03-04 08:57:09 51°15.476 2°49.124 274.6 12.2 275 12.6
2009-03-04 08:57:15 51°15.478 2°49.092 274.4 12.2 276 12.5
2009-03-04 08:57:19 51°15.479 2°49.07 274.5 12.2 275 12.5
2009-03-04 08:57:23 51°15.48 2°49.049 274.3 12.2 275 12.3
2009-03-04 08:57:29 51°15.482 2°49.017 274.2 12.2 274 12.1
2009-03-04 08:57:34 51°15.483 2°48.99 273.7 12.1 275 12
2009-03-04 08:57:39 51°15.485 2°48.963 274.1 12.1 275 11.8
2009-03-04 08:57:44 51°15.486 2°48.937 274.9 12 276 11.6
2009-03-04 08:57:49 51°15.488 2°48.911 274.7 12.1 275 11.4
2009-03-04 08:57:54 51°15.489 2°48.884 274.2 12.1 276 11.2
2009-03-04 08:57:59 51°15.491 2°48.857 275 12.2 277 11.1
2009-03-04 08:58:03 51°15.493 2°48.836 275.9 12.1 277 10.9
2009-03-04 08:58:09 51°15.496 2°48.804 276.7 12.1 278 10.9
2009-03-04 08:58:15 51°15.498 2°48.772 277.1 12.2 277 10.6
2009-03-04 08:58:19 51°15.501 2°48.751 276.8 12.1 278 10.5
2009-03-04 08:58:23 51°15.503 2°48.73 277.1 12.1 277 10.4
2009-03-04 08:58:29 51°15.505 2°48.698 277 12.1 279 10.3
2009-03-04 08:58:35 51°15.508 2°48.666 277.3 12 278 10.2
2009-03-04 08:58:39 51°15.51 2°48.645 277.4 12 278 10.2
2009-03-04 08:58:44 51°15.512 2°48.619 277.4 12 278 10.1
2009-03-04 08:58:50 51°15.515 2°48.587 277.7 12 278 10.1
2009-03-04 08:58:55 51°15.517 2°48.561 277.8 12 278 10.1
2009-03-04 08:58:59 51°15.519 2°48.539 277.9 12.1 278 10.1
2009-03-04 08:59:03 51°15.521 2°48.518 277.6 12.1 278 10.1
2009-03-04 08:59:09 51°15.524 2°48.486 278.1 12.2 279 10.1
2009-03-04 08:59:14 51°15.526 2°48.459 278.1 12.2 278 10.2
2009-03-04 08:59:19 51°15.529 2°48.432 277.8 12.2 279 10.2
2009-03-04 08:59:24 51°15.531 2°48.405 278.2 12.2 279 10.1
2009-03-04 08:59:29 51°15.534 2°48.379 278.1 12.2 279 10.1
2009-03-04 08:59:34 51°15.537 2°48.353 278.1 12.2 279 10.3
2009-03-04 08:59:39 51°15.54 2°48.326 278.3 12.2 279 10.3
2009-03-04 08:59:43 51°15.542 2°48.305 278.1 12.2 278 10.3
2009-03-04 08:59:49 51°15.545 2°48.272 277.9 12.2 278 10.3
2009-03-04 08:59:54 51°15.547 2°48.246 277.6 12.2 278 10.5
2009-03-04 08:59:59 51°15.549 2°48.219 277.6 12.1 278 10.4
2009-03-04 09:00:03 51°15.551 2°48.197 277.3 12.2 277 10.5
2009-03-04 09:00:09 51°15.554 2°48.165 277 12.2 277 10.6
2009-03-04 09:00:15 51°15.556 2°48.134 276.9 12.2 278 10.7
2009-03-04 09:00:19 51°15.558 2°48.112 277.5 12.2 278 10.7
2009-03-04 09:00:24 51°15.561 2°48.085 277.8 12.3 279 10.8
2009-03-04 09:00:29 51°15.563 2°48.058 277.9 12.3 278 11
2009-03-04 09:00:34 51°15.566 2°48.031 277.8 12.3 279 10.9
2009-03-04 09:00:39 51°15.568 2°48.005 278.1 12.2 278 10.9
2009-03-04 09:00:45 51°15.572 2°47.973 278.1 12.2 280 11
2009-03-04 09:00:49 51°15.574 2°47.951 277.9 12.1 279 11.1
2009-03-04 09:00:54 51°15.576 2°47.924 277.6 12.2 278 11.3
2009-03-04 09:00:59 51°15.578 2°47.898 277.3 12.3 278 11.3
2009-03-04 09:01:03 51°15.58 2°47.876 276.8 12.3 277 11.4
2009-03-04 09:01:09 51°15.583 2°47.844 276.8 12.2 279 11.5
2009-03-04 09:01:15 51°15.586 2°47.812 277.4 12.3 279 11.6
2009-03-04 09:01:19 51°15.588 2°47.79 277.5 12.3 278 11.9
2009-03-04 09:01:24 51°15.59 2°47.763 277 12.2 278 11.9
2009-03-04 09:01:28 51°15.592 2°47.742 277.3 12.2 277 11.9
2009-03-04 09:01:35 51°15.595 2°47.705 277.3 12.3 278 12.1
2009-03-04 09:01:39 51°15.597 2°47.683 277.8 12.3 279 12.3
2009-03-04 09:01:44 51°15.6 2°47.657 277.4 12.2 277 12.3
2009-03-04 09:01:49 51°15.602 2°47.63 277.3 12.2 279 12.5
2009-03-04 09:01:55 51°15.605 2°47.598 277.7 12.2 279 12.6
2009-03-04 09:01:59 51°15.607 2°47.577 277.8 12.2 279 12.9
2009-03-04 09:02:03 51°15.609 2°47.555 277.6 12.1 279 12.8
2009-03-04 09:02:09 51°15.612 2°47.523 277.7 12.1 278 12.9
2009-03-04 09:02:14 51°15.615 2°47.497 277.4 12.1 278 13
2009-03-04 09:02:19 51°15.617 2°47.47 277.3 12.2 277 13.3
2009-03-04 09:02:24 51°15.619 2°47.444 277 12.2 277 13.5
2009-03-04 09:02:29 51°15.621 2°47.417 276.4 12.2 277 13.6
2009-03-04 09:02:34 51°15.623 2°47.39 276.6 12.2 278 13.7
2009-03-04 09:02:39 51°15.626 2°47.363 277 12.2 278 13.7
2009-03-04 09:02:43 51°15.627 2°47.342 277.1 12.3 278 13.9
2009-03-04 09:02:49 51°15.63 2°47.31 277.3 12.2 278 14
2009-03-04 09:02:54 51°15.633 2°47.283 277.9 12.2 279 14.1
2009-03-04 09:02:59 51°15.636 2°47.257 277.8 12.2 279 14.3
2009-03-04 09:03:04 51°15.638 2°47.23 277.5 12.2 278 14.4
2009-03-04 09:03:09 51°15.64 2°47.203 277.1 12.3 277 14.4
2009-03-04 09:03:14 51°15.642 2°47.177 276.6 12.1 278 14.4
2009-03-04 09:03:19 51°15.644 2°47.15 277.3 12.1 277 14.4
2009-03-04 09:03:23 51°15.646 2°47.129 276.9 12.2 278 14.6
2009-03-04 09:03:29 51°15.649 2°47.097 277.1 12.2 277 14.8
2009-03-04 09:03:35 51°15.652 2°47.064 277.1 12.2 278 14.7
2009-03-04 09:03:39 51°15.653 2°47.043 276.5 12.2 278 14.8
2009-03-04 09:03:44 51°15.655 2°47.016 275.8 12.2 276 14.7
2009-03-04 09:03:49 51°15.657 2°46.989 275.8 12.2 277 14.8
2009-03-04 09:03:55 51°15.66 2°46.957 275.9 12.2 277 15
2009-03-04 09:03:59 51°15.661 2°46.935 276 12.2 277 14.9
2009-03-04 09:04:04 51°15.663 2°46.908 276.6 12.2 277 15
2009-03-04 09:04:09 51°15.665 2°46.881 276.7 12.3 278 15.3
2009-03-04 09:04:15 51°15.668 2°46.849 277.3 12.2 277 15.5
2009-03-04 09:04:19 51°15.67 2°46.827 277.3 12.2 278 15.5
2009-03-04 09:04:24 51°15.672 2°46.8 277.3 12.3 278 15.7
2009-03-04 09:04:29 51°15.675 2°46.773 278 12.2 279 15.8
2009-03-04 09:04:34 51°15.677 2°46.746 277.7 12.3 277 15.8
2009-03-04 09:04:39 51°15.68 2°46.719 277.4 12.3 279 15.9
2009-03-04 09:04:43 51°15.681 2°46.698 277.3 12.4 277 16.2
2009-03-04 09:04:49 51°15.684 2°46.665 277 12.3 278 16.2
2009-03-04 09:04:54 51°15.686 2°46.638 277.2 12.3 277 16.3
2009-03-04 09:04:59 51°15.688 2°46.611 277 12.4 279 16.1
2009-03-04 09:05:03 51°15.69 2°46.59 277.4 12.3 278 16.4
2009-03-04 09:05:09 51°15.693 2°46.558 277.3 12.2 279 16.4
2009-03-04 09:05:15 51°15.696 2°46.526 277.3 12.3 278 16.3
2009-03-04 09:05:19 51°15.698 2°46.504 277.3 12.3 278 16.7
2009-03-04 09:05:24 51°15.701 2°46.477 277.4 12.2 278 16.6
2009-03-04 09:05:29 51°15.703 2°46.45 276.8 12.3 278 16.8
2009-03-04 09:05:35 51°15.706 2°46.419 277.4 12.4 278 16.9
2009-03-04 09:05:39 51°15.708 2°46.397 277.4 12.4 279 17.1
2009-03-04 09:05:44 51°15.711 2°46.37 277.4 12.4 279 17
2009-03-04 09:05:49 51°15.714 2°46.343 278.1 12.5 280 17
2009-03-04 09:05:55 51°15.717 2°46.311 278.1 12.4 280 17
2009-03-04 09:05:59 51°15.721 2°46.29 279.9 12.4 287 16.9
2009-03-04 09:06:03 51°15.725 2°46.269 284 12.4 286 17
2009-03-04 09:06:09 51°15.731 2°46.237 286.2 12.4 289 16.7
2009-03-04 09:06:14 51°15.737 2°46.212 289 12.5 291 16.8
2009-03-04 09:06:19 51°15.744 2°46.187 290.3 12.5 292 16.8
2009-03-04 09:06:23 51°15.749 2°46.166 291.8 12.3 294 16.7
2009-03-04 09:06:29 51°15.758 2°46.136 293.7 12.3 295 16.4
2009-03-04 09:06:34 51°15.765 2°46.112 294.7 12.4 295 16.6
2009-03-04 09:06:39 51°15.773 2°46.087 295.5 12.4 298 16.5
2009-03-04 09:06:44 51°15.78 2°46.062 296.4 12.5 295 16.4
2009-03-04 09:06:49 51°15.788 2°46.038 296.9 12.4 300 16.3
2009-03-04 09:06:54 51°15.797 2°46.014 297.9 12.5 299 16.2
2009-03-04 09:06:59 51°15.806 2°45.99 300.8 12.5 304 16
2009-03-04 09:07:03 51°15.814 2°45.972 303.2 12.5 303 15.8
2009-03-04 09:07:09 51°15.826 2°45.945 304.2 12.5 308 15.6
2009-03-04 09:07:14 51°15.836 2°45.923 306.1 12.5 306 15.2
2009-03-04 09:07:19 51°15.847 2°45.901 307.1 12.5 308 14.5
2009-03-04 09:07:23 51°15.856 2°45.884 309.2 12.4 309 14.4
2009-03-04 09:07:29 51°15.868 2°45.858 309.1 12.4 309 14.3
2009-03-04 09:07:35 51°15.882 2°45.833 309.3 12.5 309 14.3
2009-03-04 09:07:39 51°15.89 2°45.816 309.8 12.5 310 14.1
2009-03-04 09:07:44 51°15.902 2°45.795 310.9 12.5 311 13.8
2009-03-04 09:07:49 51°15.913 2°45.774 311.9 12.3 311 12.9
2009-03-04 09:07:54 51°15.924 2°45.753 312 12.2 310 12.2
2009-03-04 09:07:59 51°15.936 2°45.734 313 12.4 312 12.1
2009-03-04 09:08:03 51°15.944 2°45.717 312.3 12.4 310 12.1
2009-03-04 09:08:09 51°15.959 2°45.693 312.5 12.5 314 11.9
2009-03-04 09:08:14 51°15.97 2°45.672 312.5 12.4 310 11.6
2009-03-04 09:08:19 51°15.981 2°45.652 313 12.4 312 11.4
2009-03-04 09:08:23 51°15.991 2°45.636 313.5 12.4 314 11.4
2009-03-04 09:08:29 51°16.005 2°45.612 312.9 12.2 312 10.9
2009-03-04 09:08:35 51°16.019 2°45.589 313.3 12.2 313 10.7
2009-03-04 09:08:39 51°16.028 2°45.573 313.7 12.3 312 10.5
2009-03-04 09:08:44 51°16.039 2°45.552 313 12.3 313 10.4
2009-03-04 09:08:49 51°16.05 2°45.533 312.9 12.4 313 10.5
2009-03-04 09:08:54 51°16.062 2°45.512 312.6 12.3 312 10.4
2009-03-04 09:08:59 51°16.073 2°45.492 312.9 12.3 312 10.5
2009-03-04 09:09:03 51°16.082 2°45.476 312.2 12.3 312 10.4
2009-03-04 09:09:09 51°16.096 2°45.452 312.6 12.3 311 10.3
2009-03-04 09:09:14 51°16.107 2°45.431 312.3 12.2 313 10.1
2009-03-04 09:09:19 51°16.119 2°45.412 313.5 12.3 313 10.4
2009-03-04 09:09:24 51°16.131 2°45.392 312.5 12.2 312 10.4
2009-03-04 09:09:29 51°16.142 2°45.372 312.2 12.2 311 10.3
2009-03-04 09:09:34 51°16.154 2°45.352 312.5 12.3 314 10.3
2009-03-04 09:09:39 51°16.165 2°45.332 312.5 12.2 311 10.3
2009-03-04 09:09:45 51°16.179 2°45.308 312.3 12.1 312 10
2009-03-04 09:09:49 51°16.188 2°45.292 312.6 12.2 313 10.1
2009-03-04 09:09:54 51°16.199 2°45.271 312.7 12.3 311 10.3
2009-03-04 09:09:59 51°16.211 2°45.251 312.8 12.2 314 10.2
2009-03-04 09:10:04 51°16.222 2°45.231 312.7 12.2 310 10.4
2009-03-04 09:10:09 51°16.234 2°45.211 312.4 12.3 312 10.4
2009-03-04 09:10:14 51°16.245 2°45.19 312 12.3 310 10.7
2009-03-04 09:10:19 51°16.255 2°45.169 311.3 12.3 311 10.7
2009-03-04 09:10:23 51°16.265 2°45.153 311.5 12.3 310 10.8
2009-03-04 09:10:29 51°16.278 2°45.129 311.5 12.3 311 10.7
2009-03-04 09:10:34 51°16.289 2°45.108 310.7 12.4 310 10.3
2009-03-04 09:10:39 51°16.301 2°45.087 310.8 12.3 311 9.6
2009-03-04 09:10:44 51°16.312 2°45.067 311.5 12.3 311 9.3
2009-03-04 09:10:49 51°16.323 2°45.047 311.9 12.3 312 9.6
2009-03-04 09:10:55 51°16.337 2°45.022 312.1 12.3 311 9.7
2009-03-04 09:10:59 51°16.346 2°45.006 311.5 12.4 312 9.8
2009-03-04 09:11:03 51°16.354 2°44.99 311.3 12.4 311 9.6
2009-03-04 09:11:09 51°16.368 2°44.965 311.1 12.3 311 9.4
2009-03-04 09:11:14 51°16.379 2°44.944 310.9 12.2 311 9.4
2009-03-04 09:11:19 51°16.391 2°44.924 312.2 12.3 311 9.7
2009-03-04 09:11:24 51°16.402 2°44.903 311.7 12.3 311 9.8
2009-03-04 09:11:29 51°16.413 2°44.883 311.9 12.3 313 9.8
2009-03-04 09:11:34 51°16.424 2°44.863 312.2 12.2 311 10
2009-03-04 09:11:39 51°16.435 2°44.843 311.5 12.2 312 10.1
2009-03-04 09:11:43 51°16.445 2°44.826 312.1 12.4 310 10.1
2009-03-04 09:11:49 51°16.458 2°44.801 310.8 12.3 310 10
2009-03-04 09:11:54 51°16.469 2°44.781 310.8 12.4 312 10.6
2009-03-04 09:11:59 51°16.48 2°44.759 309.8 12.4 309 10.7
2009-03-04 09:12:04 51°16.491 2°44.739 310.4 12.3 312 10.6
2009-03-04 09:12:09 51°16.502 2°44.718 311.3 12.4 310 10.8
2009-03-04 09:12:14 51°16.513 2°44.697 311 12.5 310 11
2009-03-04 09:12:19 51°16.525 2°44.676 311.3 12.4 311 10.9
2009-03-04 09:12:23 51°16.534 2°44.659 311.1 12.5 310 11
2009-03-04 09:12:29 51°16.547 2°44.634 310.8 12.4 311 11.1
2009-03-04 09:12:35 51°16.561 2°44.609 311.1 12.4 311 11.2
2009-03-04 09:12:39 51°16.57 2°44.592 311.3 12.5 311 11.6
2009-03-04 09:12:44 51°16.581 2°44.572 311.6 12.5 310 11.2
2009-03-04 09:12:49 51°16.592 2°44.55 311.2 12.5 311 11.8
2009-03-04 09:12:55 51°16.606 2°44.526 310.9 12.5 312 11.8
2009-03-04 09:12:59 51°16.615 2°44.509 311 12.5 309 12.3
2009-03-04 09:13:03 51°16.624 2°44.492 310.1 12.6 312 12.6
2009-03-04 09:13:09 51°16.637 2°44.466 310.7 12.4 308 12.8
2009-03-04 09:13:15 51°16.651 2°44.442 310.6 12.4 312 13.1
2009-03-04 09:13:19 51°16.66 2°44.424 311 12.5 310 13.3
2009-03-04 09:13:23 51°16.669 2°44.408 311.3 12.5 311 13.6
2009-03-04 09:13:29 51°16.683 2°44.383 310.9 12.6 310 13.9
2009-03-04 09:13:35 51°16.696 2°44.357 310.6 12.5 310 14
2009-03-04 09:13:39 51°16.705 2°44.34 311 12.5 309 14.1
2009-03-04 09:13:44 51°16.716 2°44.319 310.6 12.4 311 14.1
2009-03-04 09:13:48 51°16.725 2°44.302 310.6 12.4 309 14.2
2009-03-04 09:13:54 51°16.738 2°44.277 310.7 12.4 310 14.3
2009-03-04 09:13:59 51°16.749 2°44.255 310.4 12.5 310 14.3
2009-03-04 09:14:04 51°16.76 2°44.234 310 12.5 309 14.5
2009-03-04 09:14:09 51°16.77 2°44.212 309.3 12.4 309 14.5
2009-03-04 09:14:14 51°16.781 2°44.191 309.3 12.3 309 14.7
2009-03-04 09:14:19 51°16.792 2°44.17 309.4 12.3 309 14.6
2009-03-04 09:14:24 51°16.803 2°44.149 310 12.3 309 14.8
2009-03-04 09:14:29 51°16.814 2°44.128 309.3 12.3 311 14.9
2009-03-04 09:14:34 51°16.825 2°44.107 310.2 12.3 309 14.8
2009-03-04 09:14:39 51°16.835 2°44.086 309.6 12.2 308 14.8
2009-03-04 09:14:44 51°16.846 2°44.065 309.7 12.2 310 14.9
2009-03-04 09:14:49 51°16.857 2°44.044 309.9 12.2 309 14.9
2009-03-04 09:14:54 51°16.868 2°44.023 310 12.2 309 14.8
2009-03-04 09:14:59 51°16.878 2°44.002 310 12.2 309 15.1
2009-03-04 09:15:04 51°16.889 2°43.981 310 12.3 310 14.7
2009-03-04 09:15:09 51°16.9 2°43.96 310.6 12.3 308 14.5
2009-03-04 09:15:15 51°16.913 2°43.935 310.7 12.5 311 14.7
2009-03-04 09:15:19 51°16.921 2°43.917 309.4 12.3 308 15
2009-03-04 09:15:24 51°16.933 2°43.897 310.5 12.3 310 14.9
2009-03-04 09:15:28 51°16.941 2°43.879 309.3 12.4 307 14.7
2009-03-04 09:15:34 51°16.954 2°43.854 310.1 12.3 310 14.7
2009-03-04 09:15:39 51°16.964 2°43.832 309 12.4 307 14.4
2009-03-04 09:15:44 51°16.975 2°43.812 309.2 12.4 309 14.3
2009-03-04 09:15:49 51°16.986 2°43.79 309.6 12.4 308 14.4
2009-03-04 09:15:54 51°16.997 2°43.769 309.1 12.4 309 14.3
2009-03-04 09:15:59 51°17.007 2°43.747 309.5 12.3 308 14.3
2009-03-04 09:16:04 51°17.018 2°43.726 309.4 12.4 309 14.1
2009-03-04 09:16:09 51°17.029 2°43.705 309.6 12.4 308 14.2
2009-03-04 09:16:14 51°17.04 2°43.684 310 12.3 311 14
2009-03-04 09:16:19 51°17.051 2°43.663 311.1 12.3 308 14.1
2009-03-04 09:16:23 51°17.06 2°43.646 310.8 12.3 310 14.2
2009-03-04 09:16:29 51°17.072 2°43.621 309.8 12.3 310 14.4
2009-03-04 09:16:34 51°17.083 2°43.599 310 12.3 309 14.4
2009-03-04 09:16:39 51°17.094 2°43.579 310.8 12.2 312 14.5
2009-03-04 09:16:44 51°17.105 2°43.558 310.3 12.3 308 14.2
2009-03-04 09:16:49 51°17.116 2°43.538 310.9 12.3 311 14.5
2009-03-04 09:16:55 51°17.129 2°43.512 308.7 12.3 308 14.5
2009-03-04 09:16:59 51°17.138 2°43.496 310.2 12.3 311 14.9
2009-03-04 09:17:04 51°17.148 2°43.474 310 12.2 307 14.6
2009-03-04 09:17:10 51°17.161 2°43.449 309.7 12.2 310 14.5
2009-03-04 09:17:15 51°17.172 2°43.428 311.4 12.2 309 14.7
2009-03-04 09:17:19 51°17.181 2°43.411 310.6 12.3 310 14.4
2009-03-04 09:17:24 51°17.192 2°43.39 310.4 12.4 311 14.1
2009-03-04 09:17:29 51°17.203 2°43.369 311.2 12.4 308 13.7
2009-03-04 09:17:35 51°17.215 2°43.343 309.6 12.4 308 13
2009-03-04 09:17:39 51°17.224 2°43.326 309.9 12.4 308 12.3
2009-03-04 09:17:44 51°17.235 2°43.305 309.4 12.3 310 11.7
2009-03-04 09:17:49 51°17.245 2°43.284 309.7 12.4 309 11.1
2009-03-04 09:17:54 51°17.256 2°43.262 310.2 12.3 309 10.6
2009-03-04 09:17:59 51°17.267 2°43.241 310.7 12.3 308 12.2
2009-03-04 09:18:04 51°17.278 2°43.22 310.7 12.4 310 12.3
2009-03-04 09:18:09 51°17.289 2°43.199 310.6 12.4 309 11.6
2009-03-04 09:18:14 51°17.3 2°43.178 310.2 12.4 310 11.1
2009-03-04 09:18:19 51°17.311 2°43.156 310.6 12.5 309 9.6
2009-03-04 09:18:23 51°17.319 2°43.139 310 12.4 309 11.9
2009-03-04 09:18:29 51°17.332 2°43.114 310 12.3 311 12.2
2009-03-04 09:18:34 51°17.343 2°43.092 310.6 12.5 307 12.1
2009-03-04 09:18:39 51°17.355 2°43.072 310.7 12.5 311 11.6
2009-03-04 09:18:45 51°17.368 2°43.046 310.8 12.5 310 11.2
2009-03-04 09:18:49 51°17.376 2°43.029 309.7 12.4 308 10.6
2009-03-04 09:18:54 51°17.388 2°43.008 310.5 12.3 311 10.6
2009-03-04 09:18:59 51°17.398 2°42.986 309.7 12.3 307 10.2
2009-03-04 09:19:05 51°17.411 2°42.961 310.2 12.4 310 9.1
2009-03-04 09:19:09 51°17.42 2°42.944 310.6 12.3 310 9.8
2009-03-04 09:19:14 51°17.431 2°42.923 310.1 12.2 309 9.8
2009-03-04 09:19:19 51°17.442 2°42.903 310.6 12.2 309 9.3
2009-03-04 09:19:24 51°17.453 2°42.882 311.3 12.3 311 10.4
2009-03-04 09:19:28 51°17.461 2°42.866 310.7 12.4 310 11.4
2009-03-04 09:19:35 51°17.477 2°42.835 310.8 12.5 308 12.2
2009-03-04 09:19:39 51°17.486 2°42.819 311.1 12.6 311 12.5
2009-03-04 09:19:44 51°17.497 2°42.798 311.2 12.6 310 13.1
2009-03-04 09:19:48 51°17.506 2°42.78 310.2 12.4 309 13.8
2009-03-04 09:19:55 51°17.522 2°42.752 311.2 12.5 312 14.8
2009-03-04 09:19:59 51°17.53 2°42.734 310.7 12.6 310 16.5
2009-03-04 09:20:04 51°17.542 2°42.714 310.6 12.5 309 18.6
2009-03-04 09:20:09 51°17.552 2°42.691 309.1 12.4 311 19.7
2009-03-04 09:20:14 51°17.564 2°42.671 311.7 12.5 308 20.4
2009-03-04 09:20:19 51°17.574 2°42.648 309.7 12.5 309 20.9
2009-03-04 09:20:23 51°17.583 2°42.632 310.3 12.4 309 21.2
2009-03-04 09:20:29 51°17.596 2°42.607 310.4 12.4 310 21.3
2009-03-04 09:20:34 51°17.606 2°42.584 308.8 12.2 306 24.3
2009-03-04 09:20:39 51°17.618 2°42.564 310.1 12.2 311 21.8
2009-03-04 09:20:43 51°17.625 2°42.546 309.3 12.3 308 22
2009-03-04 09:20:49 51°17.639 2°42.521 309.6 12.4 309 22.3
2009-03-04 09:20:54 51°17.649 2°42.5 309.3 12.4 309 22.5
2009-03-04 09:20:59 51°17.66 2°42.478 308.8 12.3 308 22.8
2009-03-04 09:21:04 51°17.67 2°42.456 308.7 12.2 307 22.9
2009-03-04 09:21:09 51°17.681 2°42.436 309.9 12.3 310 23.3
2009-03-04 09:21:15 51°17.694 2°42.41 309.6 12.4 307 23.2
2009-03-04 09:21:19 51°17.703 2°42.393 309.1 12.4 311 23
2009-03-04 09:21:24 51°17.713 2°42.371 309 12.4 306 23.1
2009-03-04 09:21:30 51°17.726 2°42.345 309 12.4 309 23.3
2009-03-04 09:21:35 51°17.737 2°42.324 309.3 12.5 310 23.5
2009-03-04 09:21:39 51°17.745 2°42.306 310 12.5 308 23.5
2009-03-04 09:21:44 51°17.756 2°42.285 309.9 12.4 310 23.6
2009-03-04 09:21:49 51°17.768 2°42.264 310.7 12.4 310 23.6
2009-03-04 09:21:55 51°17.781 2°42.239 310.4 12.4 311 23.6
2009-03-04 09:21:59 51°17.79 2°42.222 310.9 12.4 310 23.7
2009-03-04 09:22:04 51°17.8 2°42.2 310.7 12.4 308 23.7
2009-03-04 09:22:09 51°17.812 2°42.18 310.4 12.4 311 23.8
2009-03-04 09:22:15 51°17.825 2°42.154 311.2 12.5 310 24
2009-03-04 09:22:19 51°17.834 2°42.138 310.3 12.4 310 24
2009-03-04 09:22:24 51°17.845 2°42.117 310.3 12.5 311 23.9
2009-03-04 09:22:29 51°17.856 2°42.095 310.8 12.4 309 23.8
2009-03-04 09:22:35 51°17.87 2°42.07 311.7 12.5 310 23.9
2009-03-04 09:22:39 51°17.879 2°42.053 310.2 12.5 310 24
2009-03-04 09:22:44 51°17.89 2°42.032 310 12.3 309 23.8
2009-03-04 09:22:49 51°17.901 2°42.012 311 12.4 313 23.9
2009-03-04 09:22:54 51°17.912 2°41.99 310.5 12.3 307 23.7
2009-03-04 09:22:59 51°17.923 2°41.97 311.9 12.4 313 23.8
2009-03-04 09:23:04 51°17.934 2°41.949 310.7 12.5 309 23.7
2009-03-04 09:23:08 51°17.943 2°41.932 310.4 12.5 310 24
2009-03-04 09:23:15 51°17.958 2°41.902 309.8 12.4 309 23.7
2009-03-04 09:23:19 51°17.967 2°41.885 309.9 12.4 310 23.5
2009-03-04 09:23:24 51°17.978 2°41.864 310.5 12.2 311 23.5
2009-03-04 09:23:29 51°17.989 2°41.843 310.6 12.3 310 23.2
2009-03-04 09:23:35 51°18.002 2°41.818 310.6 12.4 309 23.5
2009-03-04 09:23:39 51°18.011 2°41.801 309.8 12.5 310 23.5
2009-03-04 09:23:44 51°18.022 2°41.78 310.5 12.5 310 23.4
2009-03-04 09:23:49 51°18.033 2°41.758 310 12.5 308 23.3
2009-03-04 09:23:55 51°18.046 2°41.734 309.9 12.3 311 23.2
2009-03-04 09:23:59 51°18.055 2°41.717 309.2 12.1 308 22.9
2009-03-04 09:24:04 51°18.065 2°41.696 309.3 12.1 311 23
2009-03-04 09:24:10 51°18.078 2°41.671 310.6 12.3 309 22.9
2009-03-04 09:24:15 51°18.089 2°41.65 310.4 12.3 309 22.9
2009-03-04 09:24:19 51°18.098 2°41.633 309.7 12.3 310 22.7
2009-03-04 09:24:24 51°18.108 2°41.612 310 12.3 308 22.8
2009-03-04 09:24:29 51°18.119 2°41.591 310.2 12.4 313 22.8
2009-03-04 09:24:35 51°18.133 2°41.566 311.8 12.3 308 22.6
2009-03-04 09:24:39 51°18.141 2°41.549 310.2 12.3 309 22.4
2009-03-04 09:24:44 51°18.152 2°41.527 308.6 12.2 309 22.5
2009-03-04 09:24:49 51°18.163 2°41.507 310.7 12.1 310 22.2
2009-03-04 09:24:55 51°18.176 2°41.482 309.3 12.2 311 21.9
2009-03-04 09:24:59 51°18.185 2°41.466 311.3 12.2 309 22
2009-03-04 09:25:04 51°18.195 2°41.444 309.2 12 309 21.2
2009-03-04 09:25:08 51°18.204 2°41.428 310.8 12.1 310 21
2009-03-04 09:25:14 51°18.217 2°41.403 311.6 12.2 309 19.9
2009-03-04 09:25:19 51°18.227 2°41.381 309 12.2 306 19.5
2009-03-04 09:25:24 51°18.238 2°41.361 309.9 12.2 312 20.2
2009-03-04 09:25:30 51°18.251 2°41.335 310.2 12.4 308 20.9
2009-03-04 09:25:35 51°18.262 2°41.315 310 12.3 311 21
2009-03-04 09:25:39 51°18.27 2°41.297 309.3 12.3 308 20.5
2009-03-04 09:25:44 51°18.282 2°41.276 311.5 12.4 310 19.6
2009-03-04 09:25:49 51°18.291 2°41.253 308.3 12.3 304 19.9
2009-03-04 09:25:55 51°18.305 2°41.229 309.7 12.3 312 20
2009-03-04 09:25:59 51°18.313 2°41.212 309.6 12.3 307 19.7
2009-03-04 09:26:04 51°18.324 2°41.191 309.6 12.4 310 18.8
2009-03-04 09:26:09 51°18.334 2°41.169 309.5 12.3 307 17.4
2009-03-04 09:26:15 51°18.348 2°41.145 310.8 12.3 311 16.7
2009-03-04 09:26:19 51°18.356 2°41.127 310.5 12.3 310 17.5
2009-03-04 09:26:24 51°18.368 2°41.107 312.2 12.5 310 18.3
2009-03-04 09:26:28 51°18.376 2°41.089 310.6 12.5 309 18.2
2009-03-04 09:26:35 51°18.392 2°41.06 310.7 12.4 310 18.3
2009-03-04 09:26:39 51°18.4 2°41.042 310.7 12.4 308 17.8
2009-03-04 09:26:44 51°18.411 2°41.021 310.7 12.5 309 17.7
2009-03-04 09:26:49 51°18.422 2°41 310.4 12.4 310 17.5
2009-03-04 09:26:54 51°18.433 2°40.978 310.4 12.4 310 17.2
2009-03-04 09:26:59 51°18.444 2°40.958 312.1 12.5 310 16.4
2009-03-04 09:27:04 51°18.454 2°40.935 308.8 12.5 306 13
2009-03-04 09:27:09 51°18.466 2°40.915 310.2 12.4 311 14.6
2009-03-04 09:27:15 51°18.478 2°40.889 310.3 12.4 307 15.2
2009-03-04 09:27:19 51°18.486 2°40.871 309.6 12.4 309 15.8
2009-03-04 09:27:24 51°18.498 2°40.851 311 12.4 310 16.4
2009-03-04 09:27:29 51°18.508 2°40.829 310 12.4 309 16.5
2009-03-04 09:27:35 51°18.522 2°40.804 310.3 12.4 311 15.3
2009-03-04 09:27:39 51°18.531 2°40.786 310.8 12.5 309 11.6
2009-03-04 09:27:44 51°18.542 2°40.765 310.8 12.3 309 14.5
2009-03-04 09:27:50 51°18.556 2°40.741 311.5 12.5 314 16.3
2009-03-04 09:27:55 51°18.567 2°40.72 311.7 12.5 309 17.3
2009-03-04 09:27:59 51°18.576 2°40.704 311.7 12.4 314 18.1
2009-03-04 09:28:04 51°18.588 2°40.684 313.4 12.5 312 19.1
2009-03-04 09:28:09 51°18.6 2°40.664 313.5 12.5 315 19.6
2009-03-04 09:28:15 51°18.615 2°40.641 316.4 12.4 317 18.7
2009-03-04 09:28:19 51°18.624 2°40.625 316.5 12.4 313 17
2009-03-04 09:28:24 51°18.637 2°40.606 316.1 12.3 316 13.1
2009-03-04 09:28:30 51°18.651 2°40.583 316 12.3 314 12
2009-03-04 09:28:35 51°18.664 2°40.564 315.9 12.3 317 15
2009-03-04 09:28:39 51°18.673 2°40.549 316.5 12.3 314 15.2
2009-03-04 09:28:44 51°18.686 2°40.53 316 12.5 317 14.6
2009-03-04 09:28:48 51°18.695 2°40.514 316.5 12.4 314 13.3
2009-03-04 09:28:55 51°18.712 2°40.487 315.9 12.5 316 13.7
2009-03-04 09:28:59 51°18.723 2°40.472 317.3 12.4 315 17.7
2009-03-04 09:29:04 51°18.734 2°40.451 314.7 12.5 315 19.2
2009-03-04 09:29:09 51°18.747 2°40.434 318.2 12.4 317 20.1
2009-03-04 09:29:14 51°18.758 2°40.412 314.3 12.3 313 19.5
2009-03-04 09:29:19 51°18.771 2°40.394 316.5 12.4 316 20.1
2009-03-04 09:29:24 51°18.783 2°40.374 316.3 12.4 314 20.3
2009-03-04 09:29:29 51°18.795 2°40.355 315.7 12.4 315 20.1
2009-03-04 09:29:34 51°18.807 2°40.334 314.4 12.4 312 21.3
2009-03-04 09:29:39 51°18.819 2°40.314 314 12.5 312 21.3
2009-03-04 09:29:44 51°18.831 2°40.294 314.2 12.4 312 22.2
2009-03-04 09:29:48 51°18.839 2°40.278 311.7 12.4 313 22.5
2009-03-04 09:29:55 51°18.856 2°40.249 312.8 12.5 311 22.9
2009-03-04 09:29:59 51°18.865 2°40.233 312.2 12.4 314 22.6
2009-03-04 09:30:04 51°18.877 2°40.213 313.7 12.4 312 22.2
2009-03-04 09:30:09 51°18.888 2°40.192 310.2 12.2 312 22.7
2009-03-04 09:30:15 51°18.903 2°40.17 313.5 12.4 317 23
2009-03-04 09:30:19 51°18.912 2°40.153 313.3 12.4 309 21.9
2009-03-04 09:30:24 51°18.924 2°40.134 311.6 12.4 316 21.5
2009-03-04 09:30:29 51°18.936 2°40.113 312.9 12.5 313 21.9
2009-03-04 09:30:35 51°18.95 2°40.089 312.9 12.5 311 22.3
2009-03-04 09:30:39 51°18.959 2°40.073 312.1 12.4 314 22.3